Ride Results

Mia Mia Endurance Ride (02-05-2026)
Ride distance: 80.0 km

Outcomes - Mia Mia Endurance Ride (02-05-2026)
Division No. of Entries Retired / DNE Completed Withdrawn Ineligible V/O Percentage Completed
HW 5 - 4 1 - - 80.00%
MW 13 - 10 - - 3 76.92%
LW 12 - 9 - - 3 75.00%
JN 1 - 1 - - - 100.00%
Totals 31 - 24 1 - 6 77.42%
Results - Mia Mia Endurance Ride (02-05-2026)
No. Rider Horse Place Time Leg Speeds Total
Km/Hr
H/R bpm
Heavyweight
270 April Robinson Moveitalong 1 6:16:30 14.0, 11.4 12.75 40, 48, 52 (Avg:50)
76 Russell Robinson Alan Pendragon 2 6:16:35 14.0, 11.4 12.75 36, 52, 52 (Avg:52)
131 Simon Thomas Tubbarubba Excalibur 3 6:37:54 12.0, 12.0 12.06 30, 44, 44 (Avg:44)
404 Mark Carson Mr Brown 4 6:49:13 12.0, 11.3 11.73 38, 48, 54 (Avg:51)
261 Rick Foley Am Byth Tharalyte W/D after vetting L1 4:09:37 10.5 10.58 52, 48 (Avg:48)
Middleweight
406 Katrina Galindo Kalimnah Farm Gemma 1 6:00:27 13.4, 13.1 13.32 33, 51, 48 (Avg:49)
317 Nicole Porter Pyrenees Stardom 2 6:01:26 13.5, 13.0 13.28 36, 44, 48 (Avg:46)
631 Poppy Kettlewell Oso Surprise 3 6:15:37 12.7, 12.7 12.78 37, 50, 40 (Avg:45)
628 Natalia Balcazar Oso Kayla 4 6:15:51 12.7, 12.7 12.77 42, 44, 46 (Avg:45)
41 Naomi McGaffin Our Chief 5 6:34:56 12.2, 11.9 12.15 43, 48, 47 (Avg:47)
380 Tanya Meares Abrielle Spa 6 6:39:18 12.5, 11.4 12.02 36, 40, 42 (Avg:41)
257 Tanya Beacham Performance Park La Diva 7 6:39:19 12.5, 11.4 12.02 31, 52, 44 (Avg:48)
677 Jenny Berg Argowan Calaena 8 6:55:59 11.6, 11.4 11.54 46, 54, 52 (Avg:53)
422 Pippa Henderson Bobby 9 6:56:11 11.9, 11.0 11.53 38, 44, 56 (Avg:50)
668 Daniel Lightely Mohara 10 8:10:36 11.0, 8.6 9.78 38, 46, 41 (Avg:43)
673 Danielle Hannaford Dekington White America Lame L2 8:11:03 11.0, 8.5 9.77 40, 48, 55 (Avg:51)
271 Christine Stomps Harmere Mitarni Lame L1 3:26:38 12.7 12.78 42, 44 (Avg:44)
664 Yahya Abdul-Rahman Simeon Saad Lame L1 3:45:10 11.7 11.72 39, 52 (Avg:52)
Lightweight
318 Rebecca Williamson Ourkari Kharlij 1 5:55:42 14.0, 12.8 13.49 35, 49, 52 (Avg:50)
22 Sarah McLaughlin Tonki Dee Boo Betty 2 6:00:24 13.4, 13.1 13.32 38, 48, 42 (Avg:45)
161 Shannon Decker Zardaqa 3 6:01:21 13.4, 13.0 13.28 40, 46, 48 (Avg:47)
687 Victoria Bice Oso Nicoletta 4 6:16:15 12.7, 12.7 12.76 37, 45, 40 (Avg:42)
17 Sallyann Duke Aloha Thee Desperado 5 6:34:51 12.2, 11.9 12.16 36, 38, 49 (Avg:43)
2014 Jodi Dewick Wickwood Badira 6 6:35:40 12.7, 11.4 12.13 29, 43, 48 (Avg:45)
151 Kasey Thomas Cadenza Casino Royale 7 6:37:43 12.0, 12.0 12.07 29, 42, 48 (Avg:45)
387 Heather Stuchbree Veloce Encore 8 6:48:36 12.1, 11.3 11.75 39, 52, 52 (Avg:52)
331 Felicia Ingram Eden 9 6:56:23 11.9, 11.0 11.53 34, 52, 44 (Avg:48)
183 Nicky Robinson Emin Lame L2 6:04:35 13.4, 12.8 13.17 36, 50, 44 (Avg:47)
2005 Louise Stevens Inshallah Indian Summer Lame L2 6:10:45 13.3, 12.5 12.95 38, 48, 52 (Avg:50)
282 Kirstin Foley Glenaroua Chilli Lame L1 4:09:12 10.5 10.59 48, 50 (Avg:50)
Junior
399 Patrick Riebeling Oso Red Revolution 1 6:38:00 12.3, 11.7 12.06 40, 52, 52 (Avg:52)